Time;durP1;ratioP1;P1;durP2;ratioP2;P2;SDS_P1;SDS_P2;PMS_P1;PMS_P2;Temp;Humidity;BMP_temperature;BMP_pressure;BME280_temperature;BME280_humidity;BME280_pressure;Samples;Min_cycle;Max_cycle;Signal;HPM_P1;HPM_P2
2021/12/15 00:00:42;;;;;;;;;;;;;;;4.29;59.42;100913.31;4426233;32;25371;-84
2021/12/15 00:03:07;;;;;;;;;;;;;;;4.27;59.42;100906.44;4440059;32;28205;-84
2021/12/15 00:05:32;;;;;;;;;;;;;;;4.24;59.41;100904.66;4427078;32;20017;-83
2021/12/15 00:07:58;;;;;;;;;;;;;;;4.20;59.41;100905.47;4426227;32;23448;-84
2021/12/15 00:10:24;;;;;;;;;;;;;;;4.29;59.42;100899.56;4426449;32;20596;-83
2021/12/15 00:12:49;;;;;;;;;;;;;;;4.16;59.41;100893.41;4439369;32;20349;-83
2021/12/15 00:15:14;;;;;;;;;;;;;;;4.41;59.42;100886.81;4426304;32;20009;-85
2021/12/15 00:17:40;;;;;;;;;;;;;;;4.26;59.41;100891.81;4425955;32;20001;-84
2021/12/15 00:20:06;;;;;;;;;;;;;;;4.43;59.43;100887.69;4440691;32;19972;-83
2021/12/15 00:22:31;;;;;;;;;;;;;;;4.41;59.42;100878.22;4426645;32;19985;-84
2021/12/15 00:24:56;;;;;;;;;;;;;;;4.55;59.43;100884.41;4426387;32;20601;-84
2021/12/15 00:27:22;;;;;;;;;;;;;;;4.37;59.42;100881.63;4426185;32;24970;-84
2021/12/15 00:29:47;;;;;;;;;;;;;;;4.38;59.42;100881.63;4439487;32;19996;-84
2021/12/15 00:32:12;;;;;;;;;;;;;;;4.63;59.43;100882.75;4426606;32;20051;-83
2021/12/15 00:34:38;;;;;;;;;;;;;;;4.59;59.43;100884.44;4426754;32;19990;-84
2021/12/15 00:37:03;;;;;;;;;;;;;;;4.50;59.43;100886.94;4441233;32;19992;-85
2021/12/15 00:39:29;;;;;;;;;;;;;;;4.50;59.43;100886.94;4439681;32;19974;-84
2021/12/15 00:41:54;;;;;;;;;;;;;;;4.42;59.43;100888.53;4426639;32;20028;-85
2021/12/15 00:44:19;;;;;;;;;;;;;;;4.46;59.42;100892.00;4426387;32;19985;-82
2021/12/15 00:46:45;;;;;;;;;;;;;;;4.06;59.40;100899.28;4437951;32;20671;-84
2021/12/15 00:49:10;;;;;;;;;;;;;;;3.94;59.39;100910.28;4438209;32;20558;-83
2021/12/15 00:51:36;;;;;;;;;;;;;;;3.92;59.40;100909.41;4425124;32;20007;-83
2021/12/15 00:54:01;;;;;;;;;;;;;;;4.10;59.40;100902.78;4425480;32;20068;-84
2021/12/15 00:56:26;;;;;;;;;;;;;;;4.01;59.40;100909.50;4438278;32;20001;-83
2021/12/15 00:58:52;;;;;;;;;;;;;;;3.91;59.40;100912.81;4438810;32;23563;-83
2021/12/15 01:01:17;;;;;;;;;;;;;;;4.13;59.41;100915.69;4439434;32;20331;-84
2021/12/15 01:03:42;;;;;;;;;;;;;;;4.02;59.40;100915.53;4439704;32;19982;-85
2021/12/15 01:06:09;;;;;;;;;;;;;;;4.04;59.40;100916.44;4427501;32;19997;-85
2021/12/15 01:08:37;;;;;;;;;;;;;;;4.21;59.42;100914.94;4427093;32;19950;-85
2021/12/15 01:22:04;;;;;;;;;;;;;;;4.30;59.42;100919.34;4400120;32;20065;-85
2021/12/15 01:24:30;;;;;;;;;;;;;;;3.93;59.39;100924.00;4408370;32;20049;-85
2021/12/15 01:26:55;;;;;;;;;;;;;;;4.07;59.40;100924.22;4423195;32;20027;-85
2021/12/15 01:29:20;;;;;;;;;;;;;;;3.79;59.39;100922.09;4427132;32;19997;-85
2021/12/15 01:31:45;;;;;;;;;;;;;;;3.81;59.38;100923.00;4426875;32;22394;-86
2021/12/15 01:34:10;;;;;;;;;;;;;;;3.80;59.38;100924.72;4426701;32;22442;-86
2021/12/15 01:36:36;;;;;;;;;;;;;;;3.60;59.37;100924.41;4426709;32;25242;-85
2021/12/15 01:39:02;;;;;;;;;;;;;;;3.48;59.37;100913.91;4439461;32;22709;-86
2021/12/15 01:41:27;;;;;;;;;;;;;;;3.37;59.36;100921.47;4427218;32;20013;-86
2021/12/15 01:46:56;;;;;;;;;;;;;;;3.52;59.37;100913.09;4438748;32;19974;-85
2021/12/15 01:49:24;;;;;;;;;;;;;;;3.59;59.37;100921.81;4452688;32;19991;-83
2021/12/15 01:51:49;;;;;;;;;;;;;;;3.56;59.37;100921.78;4440454;32;20005;-84
2021/12/15 01:54:15;;;;;;;;;;;;;;;3.59;59.37;100925.25;4427703;32;20019;-84
2021/12/15 01:56:40;;;;;;;;;;;;;;;3.49;59.37;100930.22;4440598;32;19973;-84
2021/12/15 01:59:06;;;;;;;;;;;;;;;3.61;59.38;100928.72;4441503;32;19965;-85
2021/12/15 02:01:31;;;;;;;;;;;;;;;3.65;59.38;100924.47;4428172;32;19998;-84
2021/12/15 02:03:56;;;;;;;;;;;;;;;3.37;59.36;100925.75;4453498;32;22454;-82
2021/12/15 02:06:21;;;;;;;;;;;;;;;3.52;59.37;100925.97;4453526;32;24904;-83
2021/12/15 02:08:48;;;;;;;;;;;;;;;3.38;59.36;100928.34;4453564;32;25184;-83
2021/12/15 02:11:13;;;;;;;;;;;;;;;3.56;59.37;100924.34;4440481;32;19981;-84
2021/12/15 02:13:39;;;;;;;;;;;;;;;3.41;59.37;100926.66;4427560;32;20036;-83
2021/12/15 02:16:05;;;;;;;;;;;;;;;3.45;59.36;100920.72;4440893;32;19973;-84
2021/12/15 02:18:31;;;;;;;;;;;;;;;3.37;59.36;100928.34;4428925;32;19985;-84
2021/12/15 02:21:01;;;;;;;;;;;;;;;3.34;59.36;100918.00;4439973;32;20004;-84
2021/12/15 02:23:33;;;;;;;;;;;;;;;3.20;59.36;100916.88;4441328;32;19989;-84
2021/12/15 02:25:58;;;;;;;;;;;;;;;3.26;59.36;100914.41;4455795;32;19973;-84
2021/12/15 02:28:24;;;;;;;;;;;;;;;3.21;59.35;100918.63;4427848;32;20280;-83
2021/12/15 02:31:34;;;;;;;;;;;;;;;3.20;59.36;100922.03;4440323;32;20046;-83
2021/12/15 02:38:52;;;;;;;;;;;;;;;3.27;59.36;100917.00;4444728;32;19987;-83
2021/12/15 02:41:20;;;;;;;;;;;;;;;3.14;59.35;100922.81;4432208;32;28259;-84
2021/12/15 02:43:53;;;;;;;;;;;;;;;2.99;59.34;100930.25;4455838;32;19957;-84
2021/12/15 02:46:18;;;;;;;;;;;;;;;3.22;59.35;100928.94;4438752;32;20082;-84
2021/12/15 02:48:44;;;;;;;;;;;;;;;3.22;59.35;100928.94;4428732;32;24208;-84
2021/12/15 02:51:09;;;;;;;;;;;;;;;3.34;59.36;100924.00;4441347;32;20066;-82
2021/12/15 02:53:34;;;;;;;;;;;;;;;3.19;59.35;100923.75;4427330;32;20040;-83
2021/12/15 02:55:59;;;;;;;;;;;;;;;3.26;59.36;100917.84;4453565;32;26408;-83
2021/12/15 02:58:31;;;;;;;;;;;;;;;3.24;59.35;100923.81;4439502;32;20047;-83
2021/12/15 03:01:03;;;;;;;;;;;;;;;3.20;59.35;100924.63;4439942;32;20000;-84
2021/12/15 03:06:09;;;;;;;;;;;;;;;3.28;59.36;100920.44;4441957;32;19981;-85
2021/12/15 03:16:40;;;;;;;;;;;;;;;3.30;59.35;100916.19;4443379;32;19991;-85
2021/12/15 03:19:06;;;;;;;;;;;;;;;3.47;59.37;100909.59;4428817;32;19999;-86
2021/12/15 03:21:31;;;;;;;;;;;;;;;3.53;59.38;100906.25;4427840;32;27021;-85
2021/12/15 03:24:01;;;;;;;;;;;;;;;3.38;59.36;100896.59;4440831;32;25161;-86
2021/12/15 03:26:30;;;;;;;;;;;;;;;3.48;59.37;100895.03;4441039;32;20665;-85
2021/12/15 03:39:21;;;;;;;;;;;;;;;3.63;59.38;100890.13;4442714;32;20027;-84
2021/12/15 03:41:52;;;;;;;;;;;;;;;3.50;59.37;100891.63;4429157;32;19989;-84
2021/12/15 03:44:17;;;;;;;;;;;;;;;3.58;59.37;100894.34;4442803;32;20050;-84
2021/12/15 03:46:42;;;;;;;;;;;;;;;3.38;59.36;100894.91;4442645;32;19989;-85
2021/12/15 03:49:07;;;;;;;;;;;;;;;3.28;59.36;100903.28;4439749;32;20935;-85
2021/12/15 03:51:32;;;;;;;;;;;;;;;3.40;59.37;100900.06;4426041;32;25823;-84
2021/12/15 03:53:58;;;;;;;;;;;;;;;3.52;59.37;100900.25;4426805;32;20027;-84
2021/12/15 03:56:23;;;;;;;;;;;;;;;3.68;59.37;100901.34;4440244;32;27270;-84
2021/12/15 03:58:48;;;;;;;;;;;;;;;3.76;59.39;100910.03;4439048;32;20292;-83
2021/12/15 04:01:15;;;;;;;;;;;;;;;3.59;59.37;100901.22;4425738;32;20031;-83
2021/12/15 04:03:41;;;;;;;;;;;;;;;3.49;59.37;100900.19;4426029;32;20055;-84
2021/12/15 04:06:07;;;;;;;;;;;;;;;3.33;59.37;100895.69;4439352;32;19977;-84
2021/12/15 04:08:34;;;;;;;;;;;;;;;3.38;59.36;100905.19;4439528;32;19983;-84
2021/12/15 04:10:59;;;;;;;;;;;;;;;3.44;59.36;100895.81;4426925;32;19994;-85
2021/12/15 04:13:25;;;;;;;;;;;;;;;3.46;59.36;100904.44;4439989;32;20055;-84
2021/12/15 04:15:56;;;;;;;;;;;;;;;3.36;59.36;100917.19;4439512;32;20610;-84
2021/12/15 04:18:22;;;;;;;;;;;;;;;3.33;59.36;100919.72;4439242;32;20039;-83
2021/12/15 04:20:47;;;;;;;;;;;;;;;3.30;59.35;100927.34;4440296;32;19978;-83
2021/12/15 04:23:13;;;;;;;;;;;;;;;3.32;59.37;100923.12;4426176;32;20282;-83
2021/12/15 04:25:38;;;;;;;;;;;;;;;3.15;59.35;100916.81;4426373;32;19973;-84
2021/12/15 04:28:05;;;;;;;;;;;;;;;3.13;59.35;100915.94;4439443;32;19977;-83
2021/12/15 04:30:31;;;;;;;;;;;;;;;3.14;59.35;100915.09;4438902;32;20044;-83
2021/12/15 04:32:57;;;;;;;;;;;;;;;2.94;59.33;100912.19;4438767;32;20327;-84
2021/12/15 04:35:23;;;;;;;;;;;;;;;2.87;59.33;100912.06;4439497;32;20034;-84
2021/12/15 04:37:48;;;;;;;;;;;;;;;2.86;59.33;100920.59;4438942;32;24832;-84
2021/12/15 04:40:13;;;;;;;;;;;;;;;2.94;59.33;100930.19;4426398;32;20072;-84
2021/12/15 04:42:39;;;;;;;;;;;;;;;2.92;59.33;100937.00;4439253;32;20263;-84
2021/12/15 04:45:07;;;;;;;;;;;;;;;2.84;59.33;100938.59;4439027;32;19996;-84
2021/12/15 04:47:33;;;;;;;;;;;;;;;2.90;59.34;100935.25;4428533;32;20027;-84
2021/12/15 04:49:58;;;;;;;;;;;;;;;2.84;59.33;100937.69;4441774;32;19989;-85
2021/12/15 04:52:24;;;;;;;;;;;;;;;2.88;59.34;100937.78;4440642;32;20025;-82
2021/12/15 04:54:49;;;;;;;;;;;;;;;2.91;59.33;100939.56;4441264;32;19973;-83
2021/12/15 04:57:15;;;;;;;;;;;;;;;2.95;59.33;100936.19;4428091;32;19981;-83
2021/12/15 04:59:40;;;;;;;;;;;;;;;3.11;59.35;100939.91;4440815;32;19982;-82
2021/12/15 05:02:06;;;;;;;;;;;;;;;3.30;59.35;100941.91;4441139;32;20052;-84
2021/12/15 05:04:31;;;;;;;;;;;;;;;3.19;59.35;100941.75;4441777;32;19992;-84
2021/12/15 05:06:56;;;;;;;;;;;;;;;3.22;59.35;100940.94;4440717;32;20000;-83
2021/12/15 05:09:21;;;;;;;;;;;;;;;3.16;59.35;100948.56;4427880;32;19985;-83
2021/12/15 05:11:49;;;;;;;;;;;;;;;3.10;59.35;100956.19;4428612;32;20300;-83
2021/12/15 05:14:14;;;;;;;;;;;;;;;3.18;59.35;100963.19;4428997;32;19978;-83
2021/12/15 05:16:39;;;;;;;;;;;;;;;3.03;59.34;100961.19;4454842;32;20929;-84
2021/12/15 05:19:05;;;;;;;;;;;;;;;2.96;59.35;100968.78;4441693;32;19985;-83
2021/12/15 05:21:31;;;;;;;;;;;;;;;2.99;59.34;100966.25;4441541;32;24141;-83
2021/12/15 05:24:00;;;;;;;;;;;;;;;2.92;59.33;100967.00;4443157;32;19964;-84
2021/12/15 05:26:25;;;;;;;;;;;;;;;2.96;59.34;100964.50;4432477;32;19961;-85
2021/12/15 05:28:51;;;;;;;;;;;;;;;2.99;59.34;100963.69;4441241;32;19995;-85
2021/12/15 05:31:16;;;;;;;;;;;;;;;3.05;59.34;100967.22;4451409;32;19999;-83
2021/12/15 05:33:41;;;;;;;;;;;;;;;3.20;59.35;100968.34;4431015;32;19981;-84
2021/12/15 05:36:07;;;;;;;;;;;;;;;3.31;59.36;100975.44;4430204;32;19984;-84
2021/12/15 05:38:32;;;;;;;;;;;;;;;3.56;59.37;100976.69;4442119;32;20175;-84
2021/12/15 05:40:59;;;;;;;;;;;;;;;3.56;59.37;100979.28;4428733;32;20045;-84
2021/12/15 05:43:24;;;;;;;;;;;;;;;3.52;59.37;100981.75;4428933;32;20033;-86
2021/12/15 05:45:51;;;;;;;;;;;;;;;3.33;59.36;100981.47;4429969;32;19997;-87
2021/12/15 05:48:17;;;;;;;;;;;;;;;3.33;59.36;100980.59;4442530;32;20004;-84
2021/12/15 05:50:42;;;;;;;;;;;;;;;3.53;59.38;100991.19;4429019;32;20004;-84
2021/12/15 05:53:07;;;;;;;;;;;;;;;3.63;59.38;100987.94;4429276;32;20273;-84
2021/12/15 05:55:33;;;;;;;;;;;;;;;3.56;59.37;100993.84;4429197;32;20351;-85
2021/12/15 05:57:58;;;;;;;;;;;;;;;3.25;59.36;100997.59;4429646;32;19981;-85
2021/12/15 06:00:26;;;;;;;;;;;;;;;3.19;59.35;100998.34;4428942;32;20148;-85
2021/12/15 06:02:52;;;;;;;;;;;;;;;3.24;59.35;101006.16;4442456;32;19959;-86
2021/12/15 06:05:17;;;;;;;;;;;;;;;3.07;59.34;101005.84;4429601;32;20296;-86
2021/12/15 06:07:42;;;;;;;;;;;;;;;3.01;59.34;101014.31;4429511;32;20008;-85
2021/12/15 06:10:08;;;;;;;;;;;;;;;3.06;59.34;101016.97;4428877;32;20302;-85
2021/12/15 06:12:33;;;;;;;;;;;;;;;3.31;59.35;101015.69;4442504;32;20724;-86
2021/12/15 06:14:59;;;;;;;;;;;;;;;3.18;59.35;101021.50;4429628;32;19977;-85
2021/12/15 06:17:26;;;;;;;;;;;;;;;3.14;59.35;101025.72;4429538;32;20534;-84
2021/12/15 06:19:54;;;;;;;;;;;;;;;3.27;59.36;101039.66;4429208;32;20001;-85
2021/12/15 06:22:24;;;;;;;;;;;;;;;3.25;59.36;101042.19;4441592;32;20001;-85
2021/12/15 06:24:50;;;;;;;;;;;;;;;3.27;59.36;101045.66;4429723;32;19981;-83
2021/12/15 06:27:19;;;;;;;;;;;;;;;3.15;59.35;101049.75;4428853;32;20042;-91
2021/12/15 06:29:45;;;;;;;;;;;;;;;3.17;59.34;101046.34;4430130;32;19993;-85
2021/12/15 06:32:11;;;;;;;;;;;;;;;3.14;59.35;101043.72;4442599;32;19977;-85
2021/12/15 06:34:36;;;;;;;;;;;;;;;3.04;59.34;101044.38;4429616;32;20026;-85
2021/12/15 06:37:01;;;;;;;;;;;;;;;3.16;59.35;101046.31;4429056;32;20005;-85
2021/12/15 06:39:26;;;;;;;;;;;;;;;3.05;59.34;101049.53;4441845;32;19981;-85
2021/12/15 06:41:52;;;;;;;;;;;;;;;3.06;59.35;101050.41;4429838;32;19999;-85
2021/12/15 06:44:17;;;;;;;;;;;;;;;3.04;59.34;101052.09;4429205;32;19995;-85
2021/12/15 06:47:14;;;;;;;;;;;;;;;2.92;59.33;101050.16;4429259;32;19985;-87
2021/12/15 07:00:27;;;;;;;;;;;;;;;3.26;59.36;101051.66;4444027;32;20048;-85
2021/12/15 07:02:53;;;;;;;;;;;;;;;3.28;59.36;101060.25;4429146;32;19981;-84
2021/12/15 07:05:18;;;;;;;;;;;;;;;3.28;59.36;101060.25;4428961;32;19980;-84
2021/12/15 07:07:44;;;;;;;;;;;;;;;3.10;59.35;101067.66;4430154;32;20024;-88
2021/12/15 07:10:09;;;;;;;;;;;;;;;3.28;59.36;101064.53;4431091;32;20079;-86
2021/12/15 07:12:35;;;;;;;;;;;;;;;3.26;59.36;101072.25;4443912;32;20018;-86
2021/12/15 07:15:00;;;;;;;;;;;;;;;3.47;59.38;101082.06;4430547;32;23323;-86
2021/12/15 07:17:27;;;;;;;;;;;;;;;3.48;59.37;101075.22;4443761;32;20005;-86
2021/12/15 07:22:33;;;;;;;;;;;;;;;3.48;59.37;101073.50;4445281;32;19980;-86
2021/12/15 07:24:59;;;;;;;;;;;;;;;3.55;59.37;101079.62;4431598;32;20644;-86
2021/12/15 07:27:24;;;;;;;;;;;;;;;3.37;59.36;101086.19;4431143;32;19993;-85
2021/12/15 07:29:49;;;;;;;;;;;;;;;3.52;59.37;101082.13;4430611;32;21292;-86
2021/12/15 07:32:15;;;;;;;;;;;;;;;3.50;59.37;101076.09;4430597;32;20019;-86
2021/12/15 07:34:40;;;;;;;;;;;;;;;3.64;59.38;101072.94;4430976;32;20020;-86
2021/12/15 07:37:05;;;;;;;;;;;;;;;3.76;59.38;101079.12;4430659;32;19996;-86
2021/12/15 07:39:30;;;;;;;;;;;;;;;3.72;59.38;101067.91;4431003;32;20310;-85
2021/12/15 07:42:05;;;;;;;;;;;;;;;3.88;59.39;101072.47;4430935;32;20004;-85
2021/12/15 07:44:30;;;;;;;;;;;;;;;3.94;59.39;101071.72;4431982;32;20281;-87
2021/12/15 07:46:56;;;;;;;;;;;;;;;3.92;59.40;101081.13;4431097;32;20012;-86
2021/12/15 07:49:21;;;;;;;;;;;;;;;3.98;59.41;101079.50;4430196;32;25118;-86
2021/12/15 07:51:47;;;;;;;;;;;;;;;4.03;59.40;101083.88;4430859;32;20001;-86
2021/12/15 07:54:12;;;;;;;;;;;;;;;4.06;59.41;101081.34;4431451;32;19981;-86
2021/12/15 07:56:38;;;;;;;;;;;;;;;4.13;59.41;101080.59;4432870;32;20017;-86
2021/12/15 07:59:03;;;;;;;;;;;;;;;4.06;59.41;101086.50;4433366;32;19993;-86
2021/12/15 08:01:28;;;;;;;;;;;;;;;3.99;59.40;101093.25;4443243;32;20171;-87
2021/12/15 08:03:55;;;;;;;;;;;;;;;3.87;59.39;101101.66;4442820;32;20027;-86
2021/12/15 08:06:21;;;;;;;;;;;;;;;3.93;59.39;101098.31;4432462;32;20023;-86
2021/12/15 08:08:46;;;;;;;;;;;;;;;4.03;59.40;101102.78;4431775;32;20375;-85
2021/12/15 08:11:11;;;;;;;;;;;;;;;3.98;59.40;101102.69;4444425;32;20000;-86
2021/12/15 08:13:36;;;;;;;;;;;;;;;4.10;59.40;101109.78;4430112;32;28468;-86
2021/12/15 08:16:02;;;;;;;;;;;;;;;4.10;59.40;101116.62;4430318;32;20003;-86
2021/12/15 08:18:27;;;;;;;;;;;;;;;3.89;59.39;101112.84;4429388;32;20023;-85
2021/12/15 08:20:52;;;;;;;;;;;;;;;4.01;59.40;101117.31;4430161;32;19985;-88
2021/12/15 08:23:17;;;;;;;;;;;;;;;4.17;59.41;101118.44;4430335;32;20238;-86
2021/12/15 08:25:43;;;;;;;;;;;;;;;4.13;59.41;101125.28;4430069;32;19986;-83
2021/12/15 08:28:09;;;;;;;;;;;;;;;4.30;59.42;101131.56;4429039;32;20499;-86
2021/12/15 08:30:34;;;;;;;;;;;;;;;4.58;59.43;101137.12;4429579;32;20778;-85
2021/12/15 08:33:01;;;;;;;;;;;;;;;4.71;59.43;101140.72;4429602;32;20015;-85
2021/12/15 08:35:29;;;;;;;;;;;;;;;4.71;59.43;101148.47;4429640;32;19999;-86
2021/12/15 08:37:55;;;;;;;;;;;;;;;4.69;59.44;101151.03;4428787;32;20091;-86
2021/12/15 08:40:20;;;;;;;;;;;;;;;4.75;59.44;101156.31;4429121;32;20057;-84
2021/12/15 08:42:45;;;;;;;;;;;;;;;4.80;59.45;101146.91;4442409;32;19965;-86
2021/12/15 08:45:11;;;;;;;;;;;;;;;4.72;59.44;101145.91;4428860;32;20058;-84
2021/12/15 08:47:36;;;;;;;;;;;;;;;4.83;59.44;101144.38;4428643;32;19996;-87
2021/12/15 08:50:01;;;;;;;;;;;;;;;4.91;59.45;101152.19;4429042;32;20044;-83
2021/12/15 08:52:26;;;;;;;;;;;;;;;4.81;59.45;101140.03;4442145;32;20776;-86
2021/12/15 08:54:52;;;;;;;;;;;;;;;4.75;59.44;101150.28;4441458;32;19996;-84
2021/12/15 08:57:17;;;;;;;;;;;;;;;4.78;59.44;101142.56;4428879;32;19985;-86
2021/12/15 08:59:42;;;;;;;;;;;;;;;4.61;59.43;101145.78;4428463;32;20000;-86
2021/12/15 09:02:07;;;;;;;;;;;;;;;4.63;59.43;101149.25;4442432;32;19993;-86
2021/12/15 09:04:33;;;;;;;;;;;;;;;4.76;59.44;101149.44;4442579;32;19985;-86
2021/12/15 09:06:58;;;;;;;;;;;;;;;4.83;59.44;101146.09;4429491;32;19989;-86
2021/12/15 09:09:25;;;;;;;;;;;;;;;4.86;59.44;101143.53;4442145;32;20001;-85
2021/12/15 09:11:50;;;;;;;;;;;;;;;5.07;59.46;101137.78;4430402;32;19988;-86
2021/12/15 09:14:15;;;;;;;;;;;;;;;5.02;59.45;101135.16;4431171;32;20057;-86
2021/12/15 09:16:42;;;;;;;;;;;;;;;5.28;59.47;101134.59;4442619;32;20037;-84
2021/12/15 09:19:07;;;;;;;;;;;;;;;5.55;59.49;101128.03;4442550;32;19999;-86
2021/12/15 09:21:32;;;;;;;;;;;;;;;5.61;59.48;101131.53;4456529;32;19965;-86
2021/12/15 09:23:58;;;;;;;;;;;;;;;5.62;59.49;101134.12;4443117;32;19981;-85
2021/12/15 09:26:23;;;;;;;;;;;;;;;5.80;59.50;101128.28;4429883;32;20340;-85
2021/12/15 09:28:48;;;;;;;;;;;;;;;5.89;59.50;101130.06;4429581;32;20004;-86
2021/12/15 09:31:15;;;;;;;;;;;;;;;5.91;59.51;101130.97;4429683;32;20354;-86
2021/12/15 09:33:41;;;;;;;;;;;;;;;5.97;59.51;101131.06;4429386;32;20008;-85
2021/12/15 09:36:07;;;;;;;;;;;;;;;6.28;59.53;101127.84;4429986;32;20037;-84
2021/12/15 09:38:32;;;;;;;;;;;;;;;6.20;59.53;101129.53;4428484;32;19977;-87
2021/12/15 09:40:58;;;;;;;;;;;;;;;6.16;59.52;101120.00;4429032;32;19985;-85
2021/12/15 09:43:27;;;;;;;;;;;;;;;6.17;59.52;101121.75;4427922;32;20317;-85
2021/12/15 09:46:03;;;;;;;;;;;;;;;6.29;59.53;101119.25;4429858;32;20000;-85
2021/12/15 10:04:46;;;;;;;;;;;;;;;6.49;59.53;101113.34;4454601;32;19985;-84
2021/12/15 10:20:56;;;;;;;;;;;;;;;6.36;59.53;101128.75;4442923;32;19997;-84
2021/12/15 10:23:29;;;;;;;;;;;;;;;6.30;59.53;101118.37;4428688;32;20250;-83
2021/12/15 10:25:57;;;;;;;;;;;;;;;6.30;59.53;101125.28;4433436;32;20001;-86
2021/12/15 10:28:25;;;;;;;;;;;;;;;6.30;59.53;101125.28;4436709;32;19957;-88
2021/12/15 10:30:55;;;;;;;;;;;;;;;6.37;59.53;101130.50;4433035;32;19992;-84
2021/12/15 10:33:23;;;;;;;;;;;;;;;6.39;59.53;101127.94;4429364;32;20348;-83
2021/12/15 10:35:49;;;;;;;;;;;;;;;6.50;59.54;101123.69;4432874;32;19976;-86
2021/12/15 10:38:20;;;;;;;;;;;;;;;6.59;59.54;101128.91;4434877;32;20024;-85
2021/12/15 10:41:24;;;;;;;;;;;;;;;6.63;59.54;101124.66;4429327;32;20001;-86
2021/12/15 10:43:55;;;;;;;;;;;;;;;6.68;59.55;101133.31;4394397;32;20048;-86
2021/12/15 10:46:21;;;;;;;;;;;;;;;6.87;59.56;101124.78;4395013;32;20024;-85
2021/12/15 10:48:48;;;;;;;;;;;;;;;7.11;59.58;101118.84;4421110;32;20609;-83
2021/12/15 10:51:24;;;;;;;;;;;;;;;7.12;59.58;101120.59;4411546;32;19985;-87
2021/12/15 10:53:50;;;;;;;;;;;;;;;7.17;59.57;101115.41;4410883;32;19954;-85
2021/12/15 10:56:18;;;;;;;;;;;;;;;7.27;59.58;101122.34;4410314;32;20032;-86
2021/12/15 10:58:47;;;;;;;;;;;;;;;7.29;59.58;101121.50;4435557;32;20005;-86
2021/12/15 11:01:31;;;;;;;;;;;;;;;7.38;59.58;101113.75;4410204;32;19989;-84
2021/12/15 11:03:57;;;;;;;;;;;;;;;7.60;59.60;101109.50;4424274;32;19958;-86
2021/12/15 11:06:23;;;;;;;;;;;;;;;7.75;59.60;101112.97;4410784;32;20028;-87
2021/12/15 11:08:49;;;;;;;;;;;;;;;7.74;59.61;101108.63;4410732;32;19986;-85
2021/12/15 11:11:27;;;;;;;;;;;;;;;7.90;59.61;101115.56;4409071;32;20386;-84
2021/12/15 11:13:52;;;;;;;;;;;;;;;7.97;59.62;101119.88;4410331;32;20001;-86
2021/12/15 11:16:26;;;;;;;;;;;;;;;7.92;59.62;101117.31;4409920;32;21671;-85
2021/12/15 11:18:51;;;;;;;;;;;;;;;8.07;59.63;101116.47;4410201;32;19994;-85
2021/12/15 11:21:17;;;;;;;;;;;;;;;8.32;59.64;101114.72;4410018;32;19998;-86
2021/12/15 11:23:42;;;;;;;;;;;;;;;8.52;59.66;101114.72;4409535;32;24354;-86
2021/12/15 11:26:08;;;;;;;;;;;;;;;8.47;59.65;101106.91;4410036;32;20039;-87
2021/12/15 11:28:35;;;;;;;;;;;;;;;8.49;59.65;101106.91;4423317;32;20361;-85
2021/12/15 11:31:07;;;;;;;;;;;;;;;8.51;59.66;101112.97;4409684;32;19953;-86
2021/12/15 11:33:34;;;;;;;;;;;;;;;8.50;59.65;101100.84;4409946;32;19978;-86
2021/12/15 11:36:05;;;;;;;;;;;;;;;8.45;59.65;101106.06;4422944;32;20403;-86
2021/12/15 11:38:41;;;;;;;;;;;;;;;8.32;59.64;101112.97;4422985;32;19969;-87
2021/12/15 11:41:06;;;;;;;;;;;;;;;8.30;59.63;101116.44;4409961;32;19978;-88
2021/12/15 11:43:39;;;;;;;;;;;;;;;8.42;59.64;101110.41;4422927;32;19993;-86
2021/12/15 11:46:13;;;;;;;;;;;;;;;8.18;59.63;101108.66;4422706;32;19978;-87
2021/12/15 11:48:39;;;;;;;;;;;;;;;8.29;59.63;101102.63;4418687;32;19989;-86
2021/12/15 11:51:04;;;;;;;;;;;;;;;8.45;59.65;101103.47;4423549;32;20007;-86
2021/12/15 11:53:34;;;;;;;;;;;;;;;8.53;59.66;101096.56;4426749;32;19977;-87
2021/12/15 11:56:29;;;;;;;;;;;;;;;8.73;59.66;101101.66;4427203;32;20032;-85
2021/12/15 11:59:18;;;;;;;;;;;;;;;8.84;59.67;101099.06;4428891;32;19989;-84
2021/12/15 12:01:43;;;;;;;;;;;;;;;8.71;59.66;101097.34;4432950;32;19953;-86
2021/12/15 12:04:12;;;;;;;;;;;;;;;8.90;59.68;101092.09;4440354;32;20352;-87
2021/12/15 12:06:37;;;;;;;;;;;;;;;8.93;59.67;101097.28;4438969;32;19989;-86
2021/12/15 12:09:02;;;;;;;;;;;;;;;9.06;59.68;101095.50;4426164;32;20024;-86
2021/12/15 12:11:29;;;;;;;;;;;;;;;9.20;59.69;101085.03;4426281;32;20359;-87
2021/12/15 12:13:58;;;;;;;;;;;;;;;8.92;59.67;101092.09;4426652;32;19984;-85
2021/12/15 12:16:25;;;;;;;;;;;;;;;9.05;59.69;101090.31;4427304;32;20001;-85
2021/12/15 12:18:51;;;;;;;;;;;;;;;8.88;59.66;101083.44;4426762;32;20009;-86
2021/12/15 12:21:16;;;;;;;;;;;;;;;8.90;59.68;101084.31;4426663;32;19997;-84
2021/12/15 12:23:45;;;;;;;;;;;;;;;8.89;59.67;101082.59;4426901;32;23412;-85
2021/12/15 12:26:10;;;;;;;;;;;;;;;8.87;59.66;101081.72;4427880;32;19999;-85
2021/12/15 12:28:36;;;;;;;;;;;;;;;8.96;59.67;101085.16;4427130;32;20327;-85
2021/12/15 12:31:28;;;;;;;;;;;;;;;9.03;59.68;101085.13;4427827;32;20041;-88
2021/12/15 12:33:54;;;;;;;;;;;;;;;9.03;59.68;101085.13;4438002;32;20020;-86
2021/12/15 12:36:21;;;;;;;;;;;;;;;9.20;59.69;101077.25;4427501;32;20319;-86
2021/12/15 12:38:50;;;;;;;;;;;;;;;9.17;59.69;101083.31;4427331;32;20007;-86
2021/12/15 12:41:16;;;;;;;;;;;;;;;9.15;59.69;101092.84;4427381;32;20037;-86
2021/12/15 12:43:46;;;;;;;;;;;;;;;9.22;59.69;101091.09;4427071;32;19978;-86
2021/12/15 12:46:21;;;;;;;;;;;;;;;9.15;59.68;101092.00;4427304;32;20010;-86
2021/12/15 12:49:22;;;;;;;;;;;;;;;9.02;59.68;101091.19;4427249;32;20012;-86
2021/12/15 13:00:09;;;;;;;;;;;;;;;9.01;59.68;101086.03;4439901;32;19968;-88
2021/12/15 13:02:46;;;;;;;;;;;;;;;9.07;59.68;101089.44;4426634;32;20049;-87
2021/12/15 13:05:31;;;;;;;;;;;;;;;9.08;59.68;101087.72;4427552;32;20352;-87
2021/12/15 13:07:58;;;;;;;;;;;;;;;9.28;59.70;101080.69;4426831;32;20006;-86
2021/12/15 13:10:43;;;;;;;;;;;;;;;9.26;59.69;101078.97;4427342;32;19997;-87
2021/12/15 13:13:12;;;;;;;;;;;;;;;9.23;59.69;101079.84;4440390;32;19949;-88
2021/12/15 13:15:38;;;;;;;;;;;;;;;9.30;59.70;101065.94;4428557;32;19986;-87
2021/12/15 13:18:11;;;;;;;;;;;;;;;9.15;59.68;101069.47;4428342;32;20314;-87
2021/12/15 13:20:36;;;;;;;;;;;;;;;9.16;59.69;101078.13;4431263;32;19965;-88
2021/12/15 13:23:32;;;;;;;;;;;;;;;9.29;59.69;101068.56;4430945;32;19981;-87
2021/12/15 13:28:48;;;;;;;;;;;;;;;9.44;59.70;101077.09;4442499;32;20035;-86
2021/12/15 13:31:15;;;;;;;;;;;;;;;8.90;59.67;101073.06;4428489;32;20059;-85
2021/12/15 13:33:43;;;;;;;;;;;;;;;8.93;59.67;101080.84;4440949;32;20001;-85
2021/12/15 13:36:08;;;;;;;;;;;;;;;8.92;59.67;101073.91;4427137;32;20084;-87
2021/12/15 13:38:33;;;;;;;;;;;;;;;8.99;59.68;101075.62;4440111;32;19997;-86
2021/12/15 13:41:10;;;;;;;;;;;;;;;9.02;59.68;101082.56;4438947;32;20028;-85
2021/12/15 13:43:40;;;;;;;;;;;;;;;8.71;59.66;101082.62;4426210;32;20726;-86
2021/12/15 13:46:07;;;;;;;;;;;;;;;8.76;59.67;101083.50;4438903;32;19981;-84
2021/12/15 13:48:51;;;;;;;;;;;;;;;8.79;59.66;101088.69;4425874;32;20391;-86
2021/12/15 13:51:22;;;;;;;;;;;;;;;8.82;59.67;101093.88;4438728;32;19981;-85
2021/12/15 13:53:47;;;;;;;;;;;;;;;8.56;59.65;101101.72;4425725;32;20017;-85
2021/12/15 13:56:13;;;;;;;;;;;;;;;8.19;59.63;101102.59;4425395;32;20015;-85
2021/12/15 13:58:38;;;;;;;;;;;;;;;7.87;59.62;101100.88;4425727;32;20009;-84
2021/12/15 14:01:04;;;;;;;;;;;;;;;7.77;59.62;101100.88;4425984;32;20326;-83
2021/12/15 14:03:40;;;;;;;;;;;;;;;7.54;59.59;101106.00;4426268;32;20078;-84
2021/12/15 14:06:11;;;;;;;;;;;;;;;7.42;59.59;101106.88;4426583;32;19987;-84
2021/12/15 14:08:43;;;;;;;;;;;;;;;7.23;59.58;101118.03;4439549;32;20047;-85
2021/12/15 14:11:19;;;;;;;;;;;;;;;7.14;59.57;101113.69;4426858;32;20002;-86
2021/12/15 14:13:49;;;;;;;;;;;;;;;6.94;59.56;101115.31;4427073;32;19985;-85
2021/12/15 14:16:15;;;;;;;;;;;;;;;6.87;59.56;101114.44;4426095;32;19970;-86
2021/12/15 14:18:40;;;;;;;;;;;;;;;6.86;59.56;101117.88;4426223;32;20011;-86
2021/12/15 14:21:10;;;;;;;;;;;;;;;6.85;59.56;101117.84;4427087;32;20294;-85
2021/12/15 14:23:38;;;;;;;;;;;;;;;6.86;59.56;101116.97;4439158;32;19977;-86